createdAt,value
2022-10-08T00:01:30.707Z,6.79
2022-10-08T00:03:58.857Z,6.77
2022-10-08T00:06:30.307Z,6.74
2022-10-08T00:09:06.693Z,6.72
2022-10-08T00:11:38.775Z,6.70
2022-10-08T00:14:09.432Z,6.68
2022-10-08T00:16:40.200Z,6.65
2022-10-08T00:19:14.371Z,6.62
2022-10-08T00:21:44.540Z,6.61
2022-10-08T00:24:18.751Z,6.61
2022-10-08T00:26:46.850Z,6.60
2022-10-08T00:29:18.192Z,6.59
2022-10-08T00:31:48.814Z,6.58
2022-10-08T00:34:20.958Z,6.56
2022-10-08T00:36:54.435Z,6.53
2022-10-08T00:39:24.400Z,6.50
2022-10-08T00:41:55.354Z,6.48
2022-10-08T00:44:56.601Z,6.45
2022-10-08T00:47:39.112Z,6.41
2022-10-08T00:50:15.925Z,6.37
2022-10-08T00:52:48.458Z,6.34
2022-10-08T00:55:20.127Z,6.31
2022-10-08T00:57:48.248Z,6.29
2022-10-08T01:00:20.403Z,6.28
2022-10-08T01:02:48.829Z,6.26
2022-10-08T01:05:24.912Z,6.23
2022-10-08T01:08:32.194Z,6.20
2022-10-08T01:11:41.841Z,6.19
2022-10-08T01:14:41.971Z,6.18
2022-10-08T01:17:17.342Z,6.17
2022-10-08T01:20:04.991Z,6.16
2022-10-08T01:23:10.558Z,6.14
2022-10-08T01:26:06.421Z,6.13
2022-10-08T01:29:01.576Z,6.12
2022-10-08T01:31:40.286Z,6.11
2022-10-08T01:34:12.325Z,6.10
2022-10-08T01:36:48.470Z,6.09
2022-10-08T01:39:19.512Z,6.08
2022-10-08T01:41:54.241Z,6.06
2022-10-08T01:44:41.050Z,6.04
2022-10-08T01:47:13.712Z,6.01
2022-10-08T01:49:46.796Z,5.99
2022-10-08T01:52:24.106Z,5.96
2022-10-08T01:54:57.913Z,5.94
2022-10-08T01:57:28.129Z,5.91
2022-10-08T02:00:10.653Z,5.89
2022-10-08T02:02:42.812Z,5.86
2022-10-08T02:05:11.819Z,5.83
2022-10-08T02:07:43.574Z,5.82
2022-10-08T02:10:19.348Z,5.79
2022-10-08T02:12:47.451Z,5.76
2022-10-08T02:15:26.622Z,5.74
2022-10-08T02:18:07.085Z,5.72
2022-10-08T02:20:47.240Z,5.70
2022-10-08T02:23:31.288Z,5.68
2022-10-08T02:26:00.593Z,5.65
2022-10-08T02:28:47.297Z,5.63
2022-10-08T02:31:38.304Z,5.60
2022-10-08T02:34:35.562Z,5.56
2022-10-08T02:37:05.989Z,5.53
2022-10-08T02:39:37.235Z,5.51
2022-10-08T02:42:11.132Z,5.48
2022-10-08T02:44:44.747Z,5.46
2022-10-08T02:47:18.451Z,5.44
2022-10-08T02:50:15.308Z,5.40
2022-10-08T02:52:45.370Z,5.37
2022-10-08T02:55:42.596Z,5.35
2022-10-08T02:58:12.954Z,5.34
2022-10-08T03:00:57.409Z,5.32
2022-10-08T03:03:32.903Z,5.31
2022-10-08T03:06:08.649Z,5.29
2022-10-08T03:08:41.556Z,5.27
2022-10-08T03:11:11.963Z,5.25
2022-10-08T03:13:45.463Z,5.22
2022-10-08T03:16:17.737Z,5.20
2022-10-08T03:18:46.929Z,5.18
2022-10-08T03:21:16.025Z,5.17
2022-10-08T03:23:43.960Z,5.16
2022-10-08T03:26:11.841Z,5.13
2022-10-08T03:28:39.800Z,5.10
2022-10-08T03:31:07.907Z,5.08
2022-10-08T03:33:36.077Z,5.06
2022-10-08T03:36:04.700Z,5.05
2022-10-08T03:38:34.730Z,5.03
2022-10-08T03:41:02.961Z,5.01
2022-10-08T03:43:34.273Z,5.00
2022-10-08T03:46:03.110Z,4.98
2022-10-08T03:48:31.884Z,4.96
2022-10-08T03:51:03.438Z,4.95
2022-10-08T03:53:37.043Z,4.93
2022-10-08T03:56:08.389Z,4.92
2022-10-08T03:58:36.326Z,4.90
2022-10-08T04:01:07.091Z,4.89
2022-10-08T04:03:35.471Z,4.87
2022-10-08T04:06:03.747Z,4.85
2022-10-08T04:08:32.864Z,4.83
2022-10-08T04:11:09.108Z,4.80
2022-10-08T04:13:37.977Z,4.78
2022-10-08T04:16:12.860Z,4.75
2022-10-08T04:18:41.873Z,4.74
2022-10-08T04:21:12.760Z,4.73
2022-10-08T04:23:41.957Z,4.72
2022-10-08T04:26:11.874Z,4.71
2022-10-08T04:28:42.048Z,4.70
2022-10-08T04:31:12.978Z,4.69
2022-10-08T04:33:41.210Z,4.69
2022-10-08T04:36:14.816Z,4.69
2022-10-08T04:38:44.218Z,4.69
2022-10-08T04:41:18.227Z,4.69
2022-10-08T04:43:47.024Z,4.69
2022-10-08T04:46:17.721Z,4.70
2022-10-08T04:48:48.484Z,4.72
2022-10-08T04:51:17.319Z,4.74
2022-10-08T04:53:45.650Z,4.77
2022-10-08T04:56:17.205Z,4.79
2022-10-08T04:58:45.480Z,4.82
2022-10-08T05:01:17.013Z,4.85
2022-10-08T05:03:51.642Z,4.88
2022-10-08T05:06:22.573Z,4.91
2022-10-08T05:08:51.500Z,4.97
2022-10-08T05:11:20.197Z,5.02
2022-10-08T05:13:53.121Z,5.11
2022-10-08T05:16:22.515Z,5.22
2022-10-08T05:18:52.066Z,5.38
2022-10-08T05:21:24.166Z,5.55
2022-10-08T05:24:07.563Z,5.76
2022-10-08T05:26:57.470Z,5.99
2022-10-08T05:29:28.625Z,6.24
2022-10-08T05:31:56.887Z,6.46
2022-10-08T05:34:25.376Z,6.69
2022-10-08T05:36:53.335Z,6.90
2022-10-08T05:39:21.715Z,7.12
2022-10-08T05:41:49.675Z,7.35
2022-10-08T05:44:18.212Z,7.57
2022-10-08T05:46:46.265Z,7.80
2022-10-08T05:49:22.609Z,8.09
2022-10-08T05:51:51.589Z,8.43
2022-10-08T05:54:19.882Z,8.79
2022-10-08T05:56:48.450Z,9.28
2022-10-08T05:59:22.973Z,9.80
2022-10-08T06:01:51.601Z,10.29
2022-10-08T06:04:19.636Z,11.18
2022-10-08T06:06:48.315Z,12.46
2022-10-08T06:09:19.469Z,13.68
2022-10-08T06:11:48.968Z,14.80
2022-10-08T06:14:17.553Z,15.67
2022-10-08T06:16:45.658Z,16.15
2022-10-08T06:19:14.108Z,16.53
2022-10-08T06:21:42.123Z,17.44
2022-10-08T06:24:12.324Z,18.71
2022-10-08T06:26:42.479Z,19.92
2022-10-08T06:29:18.448Z,20.95
2022-10-08T06:31:47.319Z,21.79
2022-10-08T06:34:15.617Z,22.22
2022-10-08T06:36:43.609Z,22.65
2022-10-08T06:39:14.854Z,23.06
2022-10-08T06:41:43.471Z,23.56
2022-10-08T06:44:14.583Z,24.45
2022-10-08T06:46:43.084Z,25.55
2022-10-08T06:49:11.749Z,26.65
2022-10-08T06:51:40.033Z,27.44
2022-10-08T06:54:08.804Z,27.36
2022-10-08T06:56:38.564Z,26.65
2022-10-08T06:59:07.857Z,25.90
2022-10-08T07:01:36.232Z,25.84
2022-10-08T07:04:07.121Z,26.09
2022-10-08T07:06:35.336Z,26.15
2022-10-08T07:09:04.109Z,26.60
2022-10-08T07:11:33.717Z,27.50
2022-10-08T07:14:02.404Z,28.59
2022-10-08T07:16:31.033Z,29.66
2022-10-08T07:18:59.238Z,30.79
2022-10-08T07:21:28.802Z,31.83
2022-10-08T07:23:59.457Z,32.82
2022-10-08T07:26:32.507Z,33.61
2022-10-08T07:29:04.596Z,34.15
2022-10-08T07:31:38.508Z,34.85
2022-10-08T07:34:10.324Z,35.48
2022-10-08T07:36:38.971Z,36.01
2022-10-08T07:39:11.077Z,36.49
2022-10-08T07:41:39.329Z,36.99
2022-10-08T07:44:08.141Z,37.80
2022-10-08T07:46:37.599Z,38.65
2022-10-08T07:49:05.681Z,39.19
2022-10-08T07:51:34.941Z,39.84
2022-10-08T07:54:05.856Z,40.58
2022-10-08T07:56:35.834Z,41.11
2022-10-08T07:59:05.123Z,41.63
2022-10-08T08:01:34.073Z,41.98
2022-10-08T08:04:05.111Z,41.93
2022-10-08T08:06:38.200Z,41.94
2022-10-08T08:09:06.171Z,42.14
2022-10-08T08:11:34.135Z,42.30
2022-10-08T08:14:02.348Z,42.54
2022-10-08T08:16:30.443Z,43.03
2022-10-08T08:19:00.451Z,43.20
2022-10-08T08:21:37.083Z,43.28
2022-10-08T08:24:12.346Z,43.64
2022-10-08T08:26:42.385Z,43.79
2022-10-08T08:29:13.445Z,43.82
2022-10-08T08:31:44.030Z,43.86
2022-10-08T08:34:15.233Z,44.00
2022-10-08T08:36:45.806Z,44.11
2022-10-08T08:39:17.559Z,44.29
2022-10-08T08:41:45.533Z,44.43
2022-10-08T08:44:25.071Z,44.72
2022-10-08T08:47:14.954Z,44.96
2022-10-08T08:50:07.498Z,45.37
2022-10-08T08:52:40.812Z,45.74
2022-10-08T08:55:17.757Z,45.95
2022-10-08T08:58:04.377Z,45.93
2022-10-08T09:00:41.768Z,45.77
2022-10-08T09:03:41.088Z,45.53
2022-10-08T09:06:14.486Z,44.87
2022-10-08T09:09:06.818Z,44.25
2022-10-08T09:11:37.756Z,43.03
2022-10-08T09:14:11.965Z,41.55
2022-10-08T09:16:40.997Z,40.16
2022-10-08T09:19:10.276Z,38.94
2022-10-08T09:21:38.332Z,37.86
2022-10-08T09:24:06.211Z,36.75
2022-10-08T09:26:36.521Z,35.68
2022-10-08T09:29:05.345Z,34.79
2022-10-08T09:31:45.365Z,33.99
2022-10-08T09:34:13.537Z,33.29
2022-10-08T09:36:43.042Z,32.70
2022-10-08T09:39:28.732Z,32.12
2022-10-08T09:42:09.497Z,31.52
2022-10-08T09:44:47.612Z,30.98
2022-10-08T09:47:16.499Z,30.46
2022-10-08T09:49:50.045Z,30.01
2022-10-08T09:52:26.894Z,29.67
2022-10-08T09:55:10.930Z,29.35
2022-10-08T09:57:55.452Z,29.04
2022-10-08T10:00:35.640Z,28.64
2022-10-08T10:03:07.292Z,28.26
2022-10-08T10:05:36.694Z,28.02
2022-10-08T10:08:05.399Z,27.85
2022-10-08T10:10:40.526Z,27.71
2022-10-08T10:13:19.546Z,27.53
2022-10-08T10:15:57.364Z,27.39
2022-10-08T10:18:39.089Z,27.24
2022-10-08T10:21:14.137Z,27.17
2022-10-08T10:23:50.336Z,27.04
2022-10-08T10:26:30.056Z,26.91
2022-10-08T10:29:05.016Z,26.77
2022-10-08T10:31:43.739Z,26.63
2022-10-08T10:34:27.084Z,26.60
2022-10-08T10:37:07.018Z,26.58
2022-10-08T10:40:00.454Z,26.52
2022-10-08T10:42:43.796Z,26.43
2022-10-08T10:45:26.837Z,26.45
2022-10-08T10:47:54.907Z,26.43
2022-10-08T10:50:36.318Z,26.40
2022-10-08T10:53:11.941Z,26.35
2022-10-08T10:55:45.953Z,26.35
2022-10-08T10:58:41.266Z,26.33
2022-10-08T11:01:19.698Z,26.35
2022-10-08T11:04:14.131Z,26.34
2022-10-08T11:07:00.687Z,26.35
2022-10-08T11:09:40.832Z,26.31
2022-10-08T11:12:37.254Z,26.26
2022-10-08T11:15:22.854Z,26.24
2022-10-08T11:18:12.529Z,26.22
2022-10-08T11:21:05.097Z,26.23
2022-10-08T11:23:54.483Z,26.27
2022-10-08T11:26:34.805Z,26.26
2022-10-08T11:29:24.075Z,26.23
2022-10-08T11:31:53.581Z,26.20
2022-10-08T11:34:27.668Z,26.22
2022-10-08T11:37:03.295Z,26.26
2022-10-08T11:39:51.951Z,26.33
2022-10-08T11:42:31.458Z,26.41
2022-10-08T11:45:24.146Z,26.45
2022-10-08T11:47:54.565Z,26.53
2022-10-08T11:50:27.538Z,26.72
2022-10-08T11:52:59.693Z,26.97
2022-10-08T11:55:56.003Z,27.25
2022-10-08T11:58:33.635Z,27.87
2022-10-08T12:01:09.097Z,28.95
2022-10-08T12:03:41.646Z,30.22
2022-10-08T12:06:19.133Z,31.45
2022-10-08T12:09:07.904Z,32.62
2022-10-08T12:11:35.813Z,33.75
2022-10-08T12:14:13.158Z,34.55
2022-10-08T12:16:47.383Z,35.19
2022-10-08T12:19:35.305Z,35.71
2022-10-08T12:22:16.786Z,36.27
2022-10-08T12:24:49.615Z,36.56
2022-10-08T12:27:18.307Z,36.67
2022-10-08T12:29:55.633Z,36.71
2022-10-08T12:32:26.329Z,36.66
2022-10-08T12:34:56.075Z,36.70
2022-10-08T12:37:45.510Z,36.76
2022-10-08T12:40:32.521Z,36.76
2022-10-08T12:43:13.075Z,36.54
2022-10-08T12:45:51.439Z,36.36
2022-10-08T12:48:44.628Z,36.18
2022-10-08T12:51:22.135Z,35.86
2022-10-08T12:53:50.281Z,35.34
2022-10-08T12:56:26.634Z,34.66
2022-10-08T12:58:58.918Z,33.87
2022-10-08T13:01:28.159Z,33.08
2022-10-08T13:04:20.458Z,32.31
2022-10-08T13:06:51.604Z,31.57
2022-10-08T13:09:37.705Z,30.91
2022-10-08T13:12:05.971Z,30.23
2022-10-08T13:14:39.516Z,29.60
2022-10-08T13:17:31.219Z,29.05
2022-10-08T13:20:22.210Z,28.48
2022-10-08T13:22:51.246Z,27.97
2022-10-08T13:25:33.794Z,27.52
2022-10-08T13:28:16.797Z,27.10
2022-10-08T13:30:46.829Z,26.74
2022-10-08T13:33:21.384Z,26.44
2022-10-08T13:36:01.542Z,26.12
2022-10-08T13:38:36.478Z,25.77
2022-10-08T13:41:06.462Z,25.51
2022-10-08T13:43:36.162Z,25.25
2022-10-08T13:46:04.141Z,25.02
2022-10-08T13:48:32.303Z,24.79
2022-10-08T13:51:02.522Z,24.60
2022-10-08T13:53:31.105Z,24.42
2022-10-08T13:55:59.080Z,24.25
2022-10-08T13:58:27.037Z,24.08
2022-10-08T14:00:55.309Z,23.92
2022-10-08T14:03:24.110Z,23.77
2022-10-08T14:05:52.696Z,23.62
2022-10-08T14:08:24.146Z,23.44
2022-10-08T14:10:57.661Z,23.25
2022-10-08T14:13:26.473Z,23.09
2022-10-08T14:15:54.577Z,22.95
2022-10-08T14:18:23.397Z,22.82
2022-10-08T14:20:52.083Z,22.69
2022-10-08T14:23:22.305Z,22.56
2022-10-08T14:25:51.607Z,22.41
2022-10-08T14:28:19.715Z,22.24
2022-10-08T14:30:47.958Z,22.09
2022-10-08T14:33:16.027Z,21.94
2022-10-08T14:35:44.100Z,21.77
2022-10-08T14:38:12.010Z,21.62
2022-10-08T14:40:40.244Z,21.46
2022-10-08T14:43:08.185Z,21.30
2022-10-08T14:45:36.268Z,21.14
2022-10-08T14:48:04.254Z,20.97
2022-10-08T14:50:32.227Z,20.79
2022-10-08T14:53:00.161Z,20.62
2022-10-08T14:55:28.061Z,20.44
2022-10-08T14:57:56.100Z,20.24
2022-10-08T15:00:24.068Z,20.08
2022-10-08T15:02:52.081Z,19.90
2022-10-08T15:05:20.045Z,19.73
2022-10-08T15:07:48.284Z,19.54
2022-10-08T15:10:16.599Z,19.34
2022-10-08T15:12:44.494Z,19.15
2022-10-08T15:15:12.534Z,18.95
2022-10-08T15:17:40.505Z,18.77
2022-10-08T15:20:09.150Z,18.58
2022-10-08T15:22:36.975Z,18.39
2022-10-08T15:25:05.700Z,18.20
2022-10-08T15:27:33.713Z,18.01
2022-10-08T15:30:01.785Z,17.82
2022-10-08T15:32:30.608Z,17.63
2022-10-08T15:34:59.164Z,17.45
2022-10-08T15:37:27.130Z,17.25
2022-10-08T15:39:55.095Z,17.06
2022-10-08T15:42:23.065Z,16.86
2022-10-08T15:44:51.144Z,16.67
2022-10-08T15:47:19.083Z,16.49
2022-10-08T15:49:47.077Z,16.32
2022-10-08T15:52:18.246Z,16.16
2022-10-08T15:54:47.134Z,16.00
2022-10-08T15:57:17.894Z,15.84
2022-10-08T15:59:46.122Z,15.68
2022-10-08T16:02:17.699Z,15.51
2022-10-08T16:04:47.743Z,15.36
2022-10-08T16:07:16.503Z,15.20
2022-10-08T16:09:44.759Z,15.05
2022-10-08T16:12:12.765Z,14.89
2022-10-08T16:14:40.903Z,14.76
2022-10-08T16:17:09.180Z,14.62
2022-10-08T16:19:37.771Z,14.49
2022-10-08T16:22:06.657Z,14.35
2022-10-08T16:24:34.830Z,14.23
2022-10-08T16:27:02.887Z,14.11
2022-10-08T16:29:30.876Z,14.00
2022-10-08T16:31:58.914Z,13.90
2022-10-08T16:34:28.744Z,13.80
2022-10-08T16:36:59.405Z,13.70
2022-10-08T16:39:27.883Z,13.60
2022-10-08T16:41:56.455Z,13.51
2022-10-08T16:44:24.352Z,13.41
2022-10-08T16:46:53.113Z,13.32
2022-10-08T16:49:25.318Z,13.24
2022-10-08T16:52:02.399Z,13.16
2022-10-08T16:54:31.217Z,13.08
2022-10-08T16:56:59.321Z,13.01
2022-10-08T16:59:29.549Z,12.93
2022-10-08T17:01:59.417Z,12.87
2022-10-08T17:04:29.378Z,12.80
2022-10-08T17:06:57.477Z,12.73
2022-10-08T17:09:25.519Z,12.68
2022-10-08T17:11:53.586Z,12.62
2022-10-08T17:14:21.596Z,12.56
2022-10-08T17:16:50.020Z,12.51
2022-10-08T17:19:18.784Z,12.44
2022-10-08T17:21:46.856Z,12.39
2022-10-08T17:24:14.900Z,12.34
2022-10-08T17:26:43.309Z,12.28
2022-10-08T17:29:12.941Z,12.24
2022-10-08T17:31:41.916Z,12.18
2022-10-08T17:34:11.675Z,12.16
2022-10-08T17:36:41.833Z,12.12
2022-10-08T17:39:13.421Z,12.09
2022-10-08T17:41:43.122Z,12.04
2022-10-08T17:44:12.098Z,12.00
2022-10-08T17:46:45.564Z,11.96
2022-10-08T17:49:16.038Z,11.91
2022-10-08T17:51:45.334Z,11.86
2022-10-08T17:54:27.957Z,11.82
2022-10-08T17:56:56.127Z,11.78
2022-10-08T17:59:24.104Z,11.73
2022-10-08T18:01:52.267Z,11.69
2022-10-08T18:04:20.458Z,11.65
2022-10-08T18:06:49.223Z,11.62
2022-10-08T18:09:21.715Z,11.58
2022-10-08T18:11:53.304Z,11.55
2022-10-08T18:14:22.520Z,11.52
2022-10-08T18:16:51.557Z,11.48
2022-10-08T18:19:19.982Z,11.44
2022-10-08T18:21:48.831Z,11.40
2022-10-08T18:24:17.893Z,11.36
2022-10-08T18:26:46.034Z,11.32
2022-10-08T18:29:14.999Z,11.29
2022-10-08T18:31:44.597Z,11.26
2022-10-08T18:34:17.847Z,11.21
2022-10-08T18:36:46.481Z,11.17
2022-10-08T18:39:18.582Z,11.13
2022-10-08T18:41:51.356Z,11.08
2022-10-08T18:44:25.694Z,11.04
2022-10-08T18:46:54.038Z,11.01
2022-10-08T18:49:30.821Z,10.97
2022-10-08T18:52:00.307Z,10.94
2022-10-08T18:54:28.686Z,10.90
2022-10-08T18:57:00.301Z,10.87
2022-10-08T18:59:28.577Z,10.84
2022-10-08T19:01:59.405Z,10.81
2022-10-08T19:04:28.034Z,10.78
2022-10-08T19:06:56.071Z,10.76
2022-10-08T19:09:24.019Z,10.72
2022-10-08T19:11:54.112Z,10.69
2022-10-08T19:14:23.161Z,10.66
2022-10-08T19:16:51.738Z,10.63
2022-10-08T19:19:23.340Z,10.61
2022-10-08T19:21:54.170Z,10.59
2022-10-08T19:24:25.637Z,10.56
2022-10-08T19:26:55.290Z,10.55
2022-10-08T19:29:29.507Z,10.53
2022-10-08T19:31:57.885Z,10.51
2022-10-08T19:34:27.516Z,10.50
2022-10-08T19:36:55.888Z,10.48
2022-10-08T19:39:27.559Z,10.47
2022-10-08T19:41:55.570Z,10.46
2022-10-08T19:44:24.016Z,10.45
2022-10-08T19:46:53.077Z,10.44
2022-10-08T19:49:23.131Z,10.42
2022-10-08T19:51:51.129Z,10.41
2022-10-08T19:54:18.997Z,10.39
2022-10-08T19:56:47.013Z,10.38
2022-10-08T19:59:15.392Z,10.36
2022-10-08T20:01:44.936Z,10.34
2022-10-08T20:04:14.167Z,10.32
2022-10-08T20:06:43.660Z,10.31
2022-10-08T20:09:14.295Z,10.28
2022-10-08T20:11:44.767Z,10.26
2022-10-08T20:14:14.529Z,10.24
2022-10-08T20:16:43.922Z,10.21
2022-10-08T20:19:20.973Z,10.19
2022-10-08T20:21:50.623Z,10.16
2022-10-08T20:24:19.517Z,10.14
2022-10-08T20:26:51.377Z,10.11
2022-10-08T20:29:27.446Z,10.09
2022-10-08T20:31:59.817Z,10.06
2022-10-08T20:34:31.201Z,10.04
2022-10-08T20:37:01.672Z,10.02
2022-10-08T20:39:30.479Z,9.99
2022-10-08T20:41:59.673Z,9.97
2022-10-08T20:44:27.569Z,9.94
2022-10-08T20:46:55.884Z,9.90
2022-10-08T20:49:24.888Z,9.87
2022-10-08T20:51:52.916Z,9.83
2022-10-08T20:54:20.978Z,9.79
2022-10-08T20:56:48.985Z,9.78
2022-10-08T20:59:18.945Z,9.75
2022-10-08T21:01:49.281Z,9.72
2022-10-08T21:04:18.774Z,9.69
2022-10-08T21:06:49.551Z,9.66
2022-10-08T21:09:20.240Z,9.63
2022-10-08T21:11:48.677Z,9.61
2022-10-08T21:14:22.700Z,9.58
2022-10-08T21:16:51.768Z,9.55
2022-10-08T21:19:23.759Z,9.51
2022-10-08T21:21:52.350Z,9.47
2022-10-08T21:24:20.733Z,9.44
2022-10-08T21:26:48.637Z,9.40
2022-10-08T21:29:16.702Z,9.38
2022-10-08T21:31:45.500Z,9.34
2022-10-08T21:34:13.869Z,9.31
2022-10-08T21:36:42.352Z,9.28
2022-10-08T21:39:14.732Z,9.23
2022-10-08T21:41:43.537Z,9.23
2022-10-08T21:44:11.890Z,9.21
2022-10-08T21:46:42.118Z,9.19
2022-10-08T21:49:16.021Z,9.16
2022-10-08T21:51:44.807Z,9.13
2022-10-08T21:54:13.979Z,9.10
2022-10-08T21:56:42.856Z,9.07
2022-10-08T21:59:14.076Z,9.05
2022-10-08T22:01:48.417Z,9.01
2022-10-08T22:04:22.181Z,8.98
2022-10-08T22:06:55.487Z,8.95
2022-10-08T22:09:26.163Z,8.91
2022-10-08T22:11:55.490Z,8.87
2022-10-08T22:14:23.978Z,8.84
2022-10-08T22:16:52.221Z,8.78
2022-10-08T22:19:20.389Z,8.74
2022-10-08T22:21:48.760Z,8.71
2022-10-08T22:24:16.977Z,8.67
2022-10-08T22:26:47.229Z,8.62
2022-10-08T22:29:16.203Z,8.59
2022-10-08T22:31:44.999Z,8.55
2022-10-08T22:34:13.283Z,8.51
2022-10-08T22:36:43.688Z,8.46
2022-10-08T22:39:12.518Z,8.44
2022-10-08T22:41:40.650Z,8.40
2022-10-08T22:44:08.721Z,8.36
2022-10-08T22:46:39.265Z,8.34
2022-10-08T22:49:10.633Z,8.31
2022-10-08T22:51:39.703Z,8.27
2022-10-08T22:54:07.977Z,8.24
2022-10-08T22:56:36.247Z,8.19
2022-10-08T22:59:04.219Z,8.15
2022-10-08T23:01:32.229Z,8.11
2022-10-08T23:04:00.261Z,8.07
2022-10-08T23:06:32.093Z,8.04
2022-10-08T23:09:12.688Z,8.01
2022-10-08T23:11:40.654Z,7.97
2022-10-08T23:14:09.956Z,7.93
2022-10-08T23:16:37.966Z,7.89
2022-10-08T23:19:08.628Z,7.85
2022-10-08T23:21:37.714Z,7.82
2022-10-08T23:24:06.959Z,7.78
2022-10-08T23:26:36.372Z,7.75
2022-10-08T23:29:05.280Z,7.72
2022-10-08T23:31:35.941Z,7.71
2022-10-08T23:34:05.301Z,7.67
2022-10-08T23:36:39.261Z,7.65
2022-10-08T23:39:08.646Z,7.62
2022-10-08T23:41:37.571Z,7.60
2022-10-08T23:44:05.710Z,7.59
2022-10-08T23:46:34.040Z,7.56
2022-10-08T23:49:02.218Z,7.53
2022-10-08T23:51:32.311Z,7.50
2022-10-08T23:54:01.532Z,7.49
2022-10-08T23:56:29.717Z,7.47
2022-10-08T23:58:58.658Z,7.46
